sensor_id;sensor_type;location;lat;lon;timestamp;pressure;altitude;pressure_sealevel;temperature;humidity
46955;BME280;32708;51.212;6.788;2023-11-19T00:01:35;100455.88;;;13.38;100.00
46955;BME280;32708;51.212;6.788;2023-11-19T00:04:01;100448.63;;;13.58;100.00
46955;BME280;32708;51.212;6.788;2023-11-19T00:06:30;100446.34;;;13.47;100.00
46955;BME280;32708;51.212;6.788;2023-11-19T00:08:57;100437.38;;;13.75;100.00
46955;BME280;32708;51.212;6.788;2023-11-19T00:11:23;100457.28;;;13.72;100.00
46955;BME280;32708;51.212;6.788;2023-11-19T00:13:50;100467.03;;;13.97;100.00
46955;BME280;32708;51.212;6.788;2023-11-19T00:16:16;100480.63;;;14.34;100.00
46955;BME280;32708;51.212;6.788;2023-11-19T00:18:42;100466.63;;;14.67;100.00
46955;BME280;32708;51.212;6.788;2023-11-19T00:21:08;100457.91;;;14.21;100.00
46955;BME280;32708;51.212;6.788;2023-11-19T00:23:36;100466.19;;;14.81;100.00
46955;BME280;32708;51.212;6.788;2023-11-19T00:26:02;100461.06;;;14.79;100.00
46955;BME280;32708;51.212;6.788;2023-11-19T00:28:32;100451.53;;;14.93;100.00
46955;BME280;32708;51.212;6.788;2023-11-19T00:31:01;100454.50;;;14.40;100.00
46955;BME280;32708;51.212;6.788;2023-11-19T00:33:39;100455.34;;;14.56;100.00
46955;BME280;32708;51.212;6.788;2023-11-19T00:36:06;100448.28;;;15.03;100.00
46955;BME280;32708;51.212;6.788;2023-11-19T00:38:33;100460.06;;;15.03;100.00
46955;BME280;32708;51.212;6.788;2023-11-19T00:41:03;100445.44;;;15.15;100.00
46955;BME280;32708;51.212;6.788;2023-11-19T00:43:29;100462.34;;;14.26;100.00
46955;BME280;32708;51.212;6.788;2023-11-19T00:45:55;100472.97;;;14.55;100.00
46955;BME280;32708;51.212;6.788;2023-11-19T00:48:21;100468.56;;;14.67;100.00
46955;BME280;32708;51.212;6.788;2023-11-19T00:50:48;100453.84;;;15.22;100.00
46955;BME280;32708;51.212;6.788;2023-11-19T00:53:14;100450.91;;;15.31;100.00
46955;BME280;32708;51.212;6.788;2023-11-19T00:55:40;100445.97;;;14.89;100.00
46955;BME280;32708;51.212;6.788;2023-11-19T00:58:06;100452.44;;;14.65;100.00
46955;BME280;32708;51.212;6.788;2023-11-19T01:00:32;100459.09;;;14.96;100.00
46955;BME280;32708;51.212;6.788;2023-11-19T01:02:59;100467.97;;;14.73;100.00
46955;BME280;32708;51.212;6.788;2023-11-19T01:05:26;100465.66;;;15.07;100.00
46955;BME280;32708;51.212;6.788;2023-11-19T01:07:52;100456.88;;;15.17;100.00
46955;BME280;32708;51.212;6.788;2023-11-19T01:10:20;100438.94;;;15.58;100.00
46955;BME280;32708;51.212;6.788;2023-11-19T01:12:46;100442.69;;;14.99;100.00
46955;BME280;32708;51.212;6.788;2023-11-19T01:15:13;100447.97;;;15.39;100.00
46955;BME280;32708;51.212;6.788;2023-11-19T01:17:39;100449.16;;;15.07;100.00
46955;BME280;32708;51.212;6.788;2023-11-19T01:20:06;100459.47;;;14.94;100.00
46955;BME280;32708;51.212;6.788;2023-11-19T01:22:33;100448.53;;;15.29;100.00
46955;BME280;32708;51.212;6.788;2023-11-19T01:24:59;100432.66;;;14.91;100.00
46955;BME280;32708;51.212;6.788;2023-11-19T01:27:25;100442.34;;;15.01;100.00
46955;BME280;32708;51.212;6.788;2023-11-19T01:29:52;100441.50;;;15.32;100.00
46955;BME280;32708;51.212;6.788;2023-11-19T01:32:18;100431.81;;;15.38;100.00
46955;BME280;32708;51.212;6.788;2023-11-19T01:34:44;100447.66;;;15.09;100.00
46955;BME280;32708;51.212;6.788;2023-11-19T01:37:10;100452.53;;;15.16;100.00
46955;BME280;32708;51.212;6.788;2023-11-19T01:39:38;100451.84;;;14.88;100.00
46955;BME280;32708;51.212;6.788;2023-11-19T01:42:05;100454.84;;;14.98;100.00
46955;BME280;32708;51.212;6.788;2023-11-19T01:44:31;100465.41;;;14.96;100.00
46955;BME280;32708;51.212;6.788;2023-11-19T01:46:58;100461.91;;;15.31;100.00
46955;BME280;32708;51.212;6.788;2023-11-19T01:49:25;100454.84;;;14.98;100.00
46955;BME280;32708;51.212;6.788;2023-11-19T01:51:52;100453.94;;;14.78;100.00
46955;BME280;32708;51.212;6.788;2023-11-19T01:54:18;100456.44;;;14.83;100.00
46955;BME280;32708;51.212;6.788;2023-11-19T01:56:44;100466.00;;;15.05;100.00
46955;BME280;32708;51.212;6.788;2023-11-19T01:59:13;100460.53;;;14.74;100.00
46955;BME280;32708;51.212;6.788;2023-11-19T02:01:41;100463.34;;;15.09;100.00
46955;BME280;32708;51.212;6.788;2023-11-19T02:04:09;100453.22;;;15.29;100.00
46955;BME280;32708;51.212;6.788;2023-11-19T02:06:40;100446.91;;;15.28;100.00
46955;BME280;32708;51.212;6.788;2023-11-19T02:09:08;100445.50;;;15.19;100.00
46955;BME280;32708;51.212;6.788;2023-11-19T02:11:35;100444.09;;;15.25;100.00
46955;BME280;32708;51.212;6.788;2023-11-19T02:14:01;100440.63;;;15.12;100.00
46955;BME280;32708;51.212;6.788;2023-11-19T02:16:29;100412.19;;;15.39;100.00
46955;BME280;32708;51.212;6.788;2023-11-19T02:18:55;100408.97;;;15.18;100.00
46955;BME280;32708;51.212;6.788;2023-11-19T02:21:22;100403.94;;;15.04;100.00
46955;BME280;32708;51.212;6.788;2023-11-19T02:23:48;100399.25;;;14.89;100.00
46955;BME280;32708;51.212;6.788;2023-11-19T02:29:02;100371.19;;;15.34;100.00
46955;BME280;32708;51.212;6.788;2023-11-19T02:31:28;100377.44;;;15.31;100.00
46955;BME280;32708;51.212;6.788;2023-11-19T02:33:55;100385.09;;;15.06;100.00
46955;BME280;32708;51.212;6.788;2023-11-19T02:36:21;100385.00;;;15.19;100.00
46955;BME280;32708;51.212;6.788;2023-11-19T02:38:47;100377.44;;;15.31;100.00
46955;BME280;32708;51.212;6.788;2023-11-19T02:41:14;100385.84;;;15.03;100.00
46955;BME280;32708;51.212;6.788;2023-11-19T02:43:40;100378.25;;;15.51;100.00
46955;BME280;32708;51.212;6.788;2023-11-19T02:46:07;100372.97;;;15.07;100.00
46955;BME280;32708;51.212;6.788;2023-11-19T02:48:35;100386.75;;;15.27;100.00
46955;BME280;32708;51.212;6.788;2023-11-19T02:51:03;100388.66;;;15.07;100.00
46955;BME280;32708;51.212;6.788;2023-11-19T02:53:30;100380.81;;;15.25;100.00
46955;BME280;32708;51.212;6.788;2023-11-19T02:55:57;100404.66;;;15.01;100.00
46955;BME280;32708;51.212;6.788;2023-11-19T02:58:44;100388.03;;;15.13;100.00
46955;BME280;32708;51.212;6.788;2023-11-19T03:01:11;100384.31;;;15.41;100.00
46955;BME280;32708;51.212;6.788;2023-11-19T03:03:50;100391.81;;;15.25;100.00
46955;BME280;32708;51.212;6.788;2023-11-19T03:06:21;100374.00;;;15.19;100.00
46955;BME280;32708;51.212;6.788;2023-11-19T03:08:47;100359.50;;;15.02;100.00
46955;BME280;32708;51.212;6.788;2023-11-19T03:11:14;100376.34;;;14.85;100.00
46955;BME280;32708;51.212;6.788;2023-11-19T03:13:41;100368.75;;;15.29;100.00
46955;BME280;32708;51.212;6.788;2023-11-19T03:16:07;100356.69;;;15.53;100.00
46955;BME280;32708;51.212;6.788;2023-11-19T03:18:33;100348.97;;;15.24;100.00
46955;BME280;32708;51.212;6.788;2023-11-19T03:21:00;100338.34;;;15.22;100.00
46955;BME280;32708;51.212;6.788;2023-11-19T03:23:26;100349.94;;;15.31;100.00
46955;BME280;32708;51.212;6.788;2023-11-19T03:25:55;100352.16;;;15.26;100.00
46955;BME280;32708;51.212;6.788;2023-11-19T03:28:21;100352.88;;;15.42;100.00
46955;BME280;32708;51.212;6.788;2023-11-19T03:30:47;100352.78;;;15.19;100.00
46955;BME280;32708;51.212;6.788;2023-11-19T03:33:14;100347.03;;;15.24;100.00
46955;BME280;32708;51.212;6.788;2023-11-19T03:35:40;100349.88;;;15.12;100.00
46955;BME280;32708;51.212;6.788;2023-11-19T03:38:07;100367.13;;;15.09;100.00
46955;BME280;32708;51.212;6.788;2023-11-19T03:40:33;100360.84;;;15.28;100.00
46955;BME280;32708;51.212;6.788;2023-11-19T03:42:59;100360.84;;;15.28;100.00
46955;BME280;32708;51.212;6.788;2023-11-19T03:45:25;100362.75;;;15.43;100.00
46955;BME280;32708;51.212;6.788;2023-11-19T03:47:51;100360.38;;;15.06;100.00
46955;BME280;32708;51.212;6.788;2023-11-19T03:50:18;100360.88;;;15.12;100.00
46955;BME280;32708;51.212;6.788;2023-11-19T03:52:47;100369.28;;;15.19;100.00
46955;BME280;32708;51.212;6.788;2023-11-19T03:55:14;100355.16;;;15.36;100.00
46955;BME280;32708;51.212;6.788;2023-11-19T03:57:40;100361.97;;;15.07;100.00
46955;BME280;32708;51.212;6.788;2023-11-19T04:00:07;100366.34;;;15.28;100.00
46955;BME280;32708;51.212;6.788;2023-11-19T04:02:40;100368.47;;;15.54;100.00
46955;BME280;32708;51.212;6.788;2023-11-19T04:05:07;100360.94;;;15.31;100.00
46955;BME280;32708;51.212;6.788;2023-11-19T04:07:33;100359.97;;;15.24;100.00
46955;BME280;32708;51.212;6.788;2023-11-19T04:10:00;100358.03;;;15.24;100.00
46955;BME280;32708;51.212;6.788;2023-11-19T04:12:26;100361.31;;;15.14;100.00
46955;BME280;32708;51.212;6.788;2023-11-19T04:14:52;100358.28;;;15.19;100.00
46955;BME280;32708;51.212;6.788;2023-11-19T04:17:18;100348.03;;;15.16;100.00
46955;BME280;32708;51.212;6.788;2023-11-19T04:19:44;100339.78;;;15.35;100.00
46955;BME280;32708;51.212;6.788;2023-11-19T04:22:11;100344.91;;;15.18;100.00
46955;BME280;32708;51.212;6.788;2023-11-19T04:24:37;100348.22;;;15.07;100.00
46955;BME280;32708;51.212;6.788;2023-11-19T04:27:05;100340.09;;;15.30;100.00
46955;BME280;32708;51.212;6.788;2023-11-19T04:29:32;100349.47;;;15.64;100.00
46955;BME280;32708;51.212;6.788;2023-11-19T04:31:58;100351.25;;;15.37;100.00
46955;BME280;32708;51.212;6.788;2023-11-19T04:34:27;100349.63;;;15.17;100.00
46955;BME280;32708;51.212;6.788;2023-11-19T04:36:54;100356.97;;;15.29;100.00
46955;BME280;32708;51.212;6.788;2023-11-19T04:39:20;100353.84;;;15.30;100.00
46955;BME280;32708;51.212;6.788;2023-11-19T04:41:48;100353.72;;;15.62;100.00
46955;BME280;32708;51.212;6.788;2023-11-19T04:44:18;100351.34;;;15.80;100.00
46955;BME280;32708;51.212;6.788;2023-11-19T04:46:46;100353.69;;;15.23;100.00
46955;BME280;32708;51.212;6.788;2023-11-19T04:49:13;100341.44;;;15.21;100.00
46955;BME280;32708;51.212;6.788;2023-11-19T04:51:45;100363.72;;;14.65;100.00
46955;BME280;32708;51.212;6.788;2023-11-19T04:54:14;100375.50;;;14.81;100.00
46955;BME280;32708;51.212;6.788;2023-11-19T04:56:45;100364.06;;;14.79;100.00
46955;BME280;32708;51.212;6.788;2023-11-19T04:59:11;100377.16;;;15.01;100.00
46955;BME280;32708;51.212;6.788;2023-11-19T05:01:37;100356.50;;;15.27;100.00
46955;BME280;32708;51.212;6.788;2023-11-19T05:04:03;100361.53;;;15.05;100.00
46955;BME280;32708;51.212;6.788;2023-11-19T05:06:31;100373.44;;;14.78;100.00
46955;BME280;32708;51.212;6.788;2023-11-19T05:09:00;100372.16;;;14.72;100.00
46955;BME280;32708;51.212;6.788;2023-11-19T05:11:35;100380.19;;;14.80;100.00
46955;BME280;32708;51.212;6.788;2023-11-19T05:14:05;100379.38;;;14.48;100.00
46955;BME280;32708;51.212;6.788;2023-11-19T05:16:31;100385.16;;;14.59;100.00
46955;BME280;32708;51.212;6.788;2023-11-19T05:18:58;100387.28;;;14.81;100.00
46955;BME280;32708;51.212;6.788;2023-11-19T05:21:24;100392.16;;;14.56;100.00
46955;BME280;32708;51.212;6.788;2023-11-19T05:23:50;100381.69;;;14.62;100.00
46955;BME280;32708;51.212;6.788;2023-11-19T05:26:22;100381.44;;;14.51;100.00
46955;BME280;32708;51.212;6.788;2023-11-19T05:28:50;100383.13;;;14.72;100.00
46955;BME280;32708;51.212;6.788;2023-11-19T05:31:18;100383.13;;;14.88;100.00
46955;BME280;32708;51.212;6.788;2023-11-19T05:33:44;100388.47;;;14.65;100.00
46955;BME280;32708;51.212;6.788;2023-11-19T05:36:12;100389.66;;;14.83;100.00
46955;BME280;32708;51.212;6.788;2023-11-19T05:38:39;100400.84;;;14.58;100.00
46955;BME280;32708;51.212;6.788;2023-11-19T05:41:06;100395.69;;;14.89;100.00
46955;BME280;32708;51.212;6.788;2023-11-19T05:43:33;100397.97;;;14.39;100.00
46955;BME280;32708;51.212;6.788;2023-11-19T05:45:59;100401.81;;;14.82;100.00
46955;BME280;32708;51.212;6.788;2023-11-19T05:48:27;100382.47;;;15.10;100.00
46955;BME280;32708;51.212;6.788;2023-11-19T05:50:54;100383.53;;;14.90;100.00
46955;BME280;32708;51.212;6.788;2023-11-19T05:53:20;100385.28;;;14.35;100.00
46955;BME280;32708;51.212;6.788;2023-11-19T05:55:47;100388.63;;;14.88;100.00
46955;BME280;32708;51.212;6.788;2023-11-19T05:58:27;100381.00;;;14.81;100.00
46955;BME280;32708;51.212;6.788;2023-11-19T06:00:58;100376.84;;;15.06;100.00
46955;BME280;32708;51.212;6.788;2023-11-19T06:03:26;100390.91;;;14.70;100.00
46955;BME280;32708;51.212;6.788;2023-11-19T06:05:53;100392.69;;;14.46;100.00
46955;BME280;32708;51.212;6.788;2023-11-19T06:08:20;100398.09;;;14.58;100.00
46955;BME280;32708;51.212;6.788;2023-11-19T06:10:47;100405.38;;;14.51;100.00
46955;BME280;32708;51.212;6.788;2023-11-19T06:13:15;100401.22;;;14.73;100.00
46955;BME280;32708;51.212;6.788;2023-11-19T06:15:45;100407.75;;;14.52;100.00
46955;BME280;32708;51.212;6.788;2023-11-19T06:18:11;100419.56;;;14.25;100.00
46955;BME280;32708;51.212;6.788;2023-11-19T06:20:38;100411.84;;;14.58;100.00
46955;BME280;32708;51.212;6.788;2023-11-19T06:23:05;100412.50;;;14.40;100.00
46955;BME280;32708;51.212;6.788;2023-11-19T06:25:31;100415.78;;;14.45;100.00
46955;BME280;32708;51.212;6.788;2023-11-19T06:27:57;100410.34;;;14.33;100.00
46955;BME280;32708;51.212;6.788;2023-11-19T06:30:24;100402.13;;;13.89;100.00
46955;BME280;32708;51.212;6.788;2023-11-19T06:32:50;100398.03;;;14.43;100.00
46955;BME280;32708;51.212;6.788;2023-11-19T06:35:17;100395.25;;;14.11;100.00
46955;BME280;32708;51.212;6.788;2023-11-19T06:37:46;100386.47;;;14.05;100.00
46955;BME280;32708;51.212;6.788;2023-11-19T06:40:12;100380.16;;;14.33;100.00
46955;BME280;32708;51.212;6.788;2023-11-19T06:42:38;100377.59;;;13.96;100.00
46955;BME280;32708;51.212;6.788;2023-11-19T06:45:06;100387.47;;;14.13;100.00
46955;BME280;32708;51.212;6.788;2023-11-19T06:47:32;100381.47;;;14.08;100.00
46955;BME280;32708;51.212;6.788;2023-11-19T06:49:58;100388.56;;;14.40;100.00
46955;BME280;32708;51.212;6.788;2023-11-19T06:52:25;100392.75;;;14.50;100.00
46955;BME280;32708;51.212;6.788;2023-11-19T06:54:51;100390.69;;;14.15;100.00
46955;BME280;32708;51.212;6.788;2023-11-19T06:57:17;100385.56;;;14.29;100.00
46955;BME280;32708;51.212;6.788;2023-11-19T06:59:46;100385.56;;;14.29;100.00
46955;BME280;32708;51.212;6.788;2023-11-19T07:02:12;100387.38;;;14.10;100.00
46955;BME280;32708;51.212;6.788;2023-11-19T07:04:39;100376.78;;;14.40;100.00
46955;BME280;32708;51.212;6.788;2023-11-19T07:07:05;100373.28;;;13.95;100.00
46955;BME280;32708;51.212;6.788;2023-11-19T07:09:32;100381.91;;;14.25;100.00
46955;BME280;32708;51.212;6.788;2023-11-19T07:11:59;100387.66;;;14.20;100.00
46955;BME280;32708;51.212;6.788;2023-11-19T07:14:25;100384.22;;;14.23;100.00
46955;BME280;32708;51.212;6.788;2023-11-19T07:16:52;100401.78;;;14.07;100.00
46955;BME280;32708;51.212;6.788;2023-11-19T07:19:19;100380.56;;;14.19;100.00
46955;BME280;32708;51.212;6.788;2023-11-19T07:21:45;100397.75;;;14.16;100.00
46955;BME280;32708;51.212;6.788;2023-11-19T07:24:12;100401.06;;;14.38;100.00
46955;BME280;32708;51.212;6.788;2023-11-19T07:26:45;100401.00;;;14.06;100.00
46955;BME280;32708;51.212;6.788;2023-11-19T07:29:16;100396.72;;;13.93;100.00
46955;BME280;32708;51.212;6.788;2023-11-19T07:31:45;100403.09;;;14.25;100.00
46955;BME280;32708;51.212;6.788;2023-11-19T07:34:11;100393.72;;;14.42;100.00
46955;BME280;32708;51.212;6.788;2023-11-19T07:36:38;100387.03;;;14.11;100.00
46955;BME280;32708;51.212;6.788;2023-11-19T07:39:05;100392.00;;;14.21;100.00
46955;BME280;32708;51.212;6.788;2023-11-19T07:41:32;100397.53;;;14.37;100.00
46955;BME280;32708;51.212;6.788;2023-11-19T07:43:58;100393.09;;;14.32;100.00
46955;BME280;32708;51.212;6.788;2023-11-19T07:46:24;100406.94;;;14.36;100.00
46955;BME280;32708;51.212;6.788;2023-11-19T07:48:52;100405.84;;;14.41;100.00
46955;BME280;32708;51.212;6.788;2023-11-19T07:51:18;100403.44;;;14.67;100.00
46955;BME280;32708;51.212;6.788;2023-11-19T07:53:44;100407.22;;;14.63;100.00
46955;BME280;32708;51.212;6.788;2023-11-19T07:56:10;100416.47;;;14.26;100.00
46955;BME280;32708;51.212;6.788;2023-11-19T07:58:36;100431.50;;;14.61;100.00
46955;BME280;32708;51.212;6.788;2023-11-19T08:01:03;100426.81;;;14.93;100.00
46955;BME280;32708;51.212;6.788;2023-11-19T08:03:29;100445.63;;;14.31;100.00
46955;BME280;32708;51.212;6.788;2023-11-19T08:05:56;100453.13;;;14.46;100.00
46955;BME280;32708;51.212;6.788;2023-11-19T08:08:23;100451.19;;;14.63;100.00
46955;BME280;32708;51.212;6.788;2023-11-19T08:10:49;100460.22;;;14.63;100.00
46955;BME280;32708;51.212;6.788;2023-11-19T08:13:18;100469.91;;;14.29;100.00
46955;BME280;32708;51.212;6.788;2023-11-19T08:15:45;100473.03;;;14.43;100.00
46955;BME280;32708;51.212;6.788;2023-11-19T08:18:13;100481.34;;;14.75;100.00
46955;BME280;32708;51.212;6.788;2023-11-19T08:20:39;100475.84;;;14.91;100.00
46955;BME280;32708;51.212;6.788;2023-11-19T08:23:05;100480.13;;;14.88;100.00
46955;BME280;32708;51.212;6.788;2023-11-19T08:25:31;100497.75;;;14.43;100.00
46955;BME280;32708;51.212;6.788;2023-11-19T08:28:00;100497.34;;;14.57;100.00
46955;BME280;32708;51.212;6.788;2023-11-19T08:30:26;100496.25;;;14.90;100.00
46955;BME280;32708;51.212;6.788;2023-11-19T08:32:53;100487.38;;;14.96;100.00
46955;BME280;32708;51.212;6.788;2023-11-19T08:35:19;100487.09;;;14.85;100.00
46955;BME280;32708;51.212;6.788;2023-11-19T08:37:45;100479.94;;;14.65;100.00
46955;BME280;32708;51.212;6.788;2023-11-19T08:40:12;100478.78;;;14.98;100.00
46955;BME280;32708;51.212;6.788;2023-11-19T08:42:42;100462.44;;;15.21;100.00
46955;BME280;32708;51.212;6.788;2023-11-19T08:45:10;100482.16;;;14.75;100.00
46955;BME280;32708;51.212;6.788;2023-11-19T08:47:39;100462.47;;;15.05;100.00
46955;BME280;32708;51.212;6.788;2023-11-19T08:50:07;100470.97;;;14.84;100.00
46955;BME280;32708;51.212;6.788;2023-11-19T08:52:34;100464.59;;;15.11;100.00
46955;BME280;32708;51.212;6.788;2023-11-19T08:55:01;100471.28;;;15.46;100.00
46955;BME280;32708;51.212;6.788;2023-11-19T08:57:27;100464.09;;;15.41;100.00
46955;BME280;32708;51.212;6.788;2023-11-19T08:59:53;100457.56;;;15.30;100.00
46955;BME280;32708;51.212;6.788;2023-11-19T09:02:19;100465.97;;;15.37;100.00
46955;BME280;32708;51.212;6.788;2023-11-19T09:04:45;100468.94;;;15.12;100.00
46955;BME280;32708;51.212;6.788;2023-11-19T09:07:12;100484.19;;;14.94;100.00
46955;BME280;32708;51.212;6.788;2023-11-19T09:09:38;100471.06;;;14.72;100.00
46955;BME280;32708;51.212;6.788;2023-11-19T09:12:04;100475.13;;;14.78;100.00
46955;BME280;32708;51.212;6.788;2023-11-19T09:14:31;100474.78;;;15.27;100.00
46955;BME280;32708;51.212;6.788;2023-11-19T09:16:58;100469.31;;;14.95;100.00
46955;BME280;32708;51.212;6.788;2023-11-19T09:19:27;100475.00;;;15.53;100.00
46955;BME280;32708;51.212;6.788;2023-11-19T09:21:54;100464.50;;;15.24;100.00
46955;BME280;32708;51.212;6.788;2023-11-19T09:24:21;100455.72;;;15.18;100.00
46955;BME280;32708;51.212;6.788;2023-11-19T09:26:47;100464.97;;;14.94;100.00
46955;BME280;32708;51.212;6.788;2023-11-19T09:29:13;100465.78;;;15.61;100.00
46955;BME280;32708;51.212;6.788;2023-11-19T09:31:40;100449.88;;;15.90;100.00
46955;BME280;32708;51.212;6.788;2023-11-19T09:34:09;100442.97;;;16.00;100.00
46955;BME280;32708;51.212;6.788;2023-11-19T09:36:35;100454.78;;;15.81;100.00
46955;BME280;32708;51.212;6.788;2023-11-19T09:39:02;100440.88;;;15.93;100.00
46955;BME280;32708;51.212;6.788;2023-11-19T09:41:31;100455.00;;;15.56;100.00
46955;BME280;32708;51.212;6.788;2023-11-19T09:43:58;100458.56;;;15.57;100.00
46955;BME280;32708;51.212;6.788;2023-11-19T09:46:26;100473.00;;;15.19;100.00
46955;BME280;32708;51.212;6.788;2023-11-19T09:48:57;100470.97;;;15.16;100.00
46955;BME280;32708;51.212;6.788;2023-11-19T09:51:25;100472.22;;;14.86;100.00
46955;BME280;32708;51.212;6.788;2023-11-19T09:53:52;100477.47;;;15.07;100.00
46955;BME280;32708;51.212;6.788;2023-11-19T09:56:19;100456.47;;;16.05;100.00
46955;BME280;32708;51.212;6.788;2023-11-19T09:58:46;100431.59;;;15.62;100.00
46955;BME280;32708;51.212;6.788;2023-11-19T10:01:12;100428.25;;;15.37;100.00
46955;BME280;32708;51.212;6.788;2023-11-19T10:03:41;100452.47;;;15.48;100.00
46955;BME280;32708;51.212;6.788;2023-11-19T10:06:10;100454.50;;;15.66;100.00
46955;BME280;32708;51.212;6.788;2023-11-19T10:08:41;100456.94;;;15.21;100.00
46955;BME280;32708;51.212;6.788;2023-11-19T10:11:08;100450.28;;;15.37;100.00
46955;BME280;32708;51.212;6.788;2023-11-19T10:13:37;100447.38;;;15.50;100.00
46955;BME280;32708;51.212;6.788;2023-11-19T10:16:14;100436.09;;;15.90;100.00
46955;BME280;32708;51.212;6.788;2023-11-19T10:18:49;100432.16;;;15.72;100.00
46955;BME280;32708;51.212;6.788;2023-11-19T10:21:23;100433.91;;;15.99;100.00
46955;BME280;32708;51.212;6.788;2023-11-19T10:23:52;100425.13;;;16.32;100.00
46955;BME280;32708;51.212;6.788;2023-11-19T10:26:20;100439.38;;;15.95;100.00
46955;BME280;32708;51.212;6.788;2023-11-19T10:28:48;100441.19;;;15.88;100.00
46955;BME280;32708;51.212;6.788;2023-11-19T10:31:16;100440.44;;;16.10;100.00
46955;BME280;32708;51.212;6.788;2023-11-19T10:33:44;100428.44;;;16.41;100.00
46955;BME280;32708;51.212;6.788;2023-11-19T10:36:14;100434.66;;;16.15;100.00
46955;BME280;32708;51.212;6.788;2023-11-19T10:38:51;100429.13;;;15.77;100.00
46955;BME280;32708;51.212;6.788;2023-11-19T10:41:32;100442.13;;;15.95;100.00
46955;BME280;32708;51.212;6.788;2023-11-19T10:44:00;100438.53;;;16.34;100.00
46955;BME280;32708;51.212;6.788;2023-11-19T10:46:42;100425.97;;;15.94;100.00
46955;BME280;32708;51.212;6.788;2023-11-19T10:49:10;100433.50;;;15.97;100.00
46955;BME280;32708;51.212;6.788;2023-11-19T10:51:47;100431.75;;;15.89;100.00
46955;BME280;32708;51.212;6.788;2023-11-19T10:54:19;100424.72;;;15.91;100.00
46955;BME280;32708;51.212;6.788;2023-11-19T10:56:57;100423.50;;;16.08;100.00
46955;BME280;32708;51.212;6.788;2023-11-19T10:59:30;100431.66;;;15.66;100.00
46955;BME280;32708;51.212;6.788;2023-11-19T11:02:03;100420.41;;;16.33;100.00
46955;BME280;32708;51.212;6.788;2023-11-19T11:04:43;100410.81;;;16.04;100.00
46955;BME280;32708;51.212;6.788;2023-11-19T11:07:15;100417.19;;;16.08;100.00
46955;BME280;32708;51.212;6.788;2023-11-19T11:09:48;100425.16;;;15.74;100.00
46955;BME280;32708;51.212;6.788;2023-11-19T11:12:22;100415.94;;;16.05;100.00
46955;BME280;32708;51.212;6.788;2023-11-19T11:14:50;100409.44;;;15.75;100.00
46955;BME280;32708;51.212;6.788;2023-11-19T11:17:31;100409.53;;;15.43;100.00
46955;BME280;32708;51.212;6.788;2023-11-19T11:20:05;100414.44;;;16.08;100.00
46955;BME280;32708;51.212;6.788;2023-11-19T11:28:52;100402.56;;;16.27;100.00
46955;BME280;32708;51.212;6.788;2023-11-19T11:31:45;100400.44;;;15.97;100.00
46955;BME280;32708;51.212;6.788;2023-11-19T11:39:36;100416.91;;;15.39;100.00
46955;BME280;32708;51.212;6.788;2023-11-19T11:45:07;100399.28;;;15.98;100.00
46955;BME280;32708;51.212;6.788;2023-11-19T11:50:18;100396.34;;;16.30;100.00
46955;BME280;32708;51.212;6.788;2023-11-19T11:55:52;100383.78;;;16.55;100.00
46955;BME280;32708;51.212;6.788;2023-11-19T11:58:35;100386.03;;;16.04;100.00
46955;BME280;32708;51.212;6.788;2023-11-19T12:01:05;100380.69;;;16.14;100.00
46955;BME280;32708;51.212;6.788;2023-11-19T12:03:38;100380.50;;;16.46;100.00
46955;BME280;32708;51.212;6.788;2023-11-19T12:06:05;100367.19;;;16.29;100.00
46955;BME280;32708;51.212;6.788;2023-11-19T12:08:38;100375.09;;;16.30;100.00
46955;BME280;32708;51.212;6.788;2023-11-19T12:11:05;100363.19;;;16.03;100.00
46955;BME280;32708;51.212;6.788;2023-11-19T12:13:57;100361.38;;;16.11;100.00
46955;BME280;32708;51.212;6.788;2023-11-19T12:16:29;100351.22;;;16.38;100.00
46955;BME280;32708;51.212;6.788;2023-11-19T12:19:05;100362.97;;;16.35;100.00
46955;BME280;32708;51.212;6.788;2023-11-19T12:21:38;100344.41;;;16.55;100.00
46955;BME280;32708;51.212;6.788;2023-11-19T12:24:07;100344.38;;;15.86;100.00
46955;BME280;32708;51.212;6.788;2023-11-19T12:26:37;100347.97;;;16.09;100.00
46955;BME280;32708;51.212;6.788;2023-11-19T12:29:06;100363.88;;;16.42;100.00
46955;BME280;32708;51.212;6.788;2023-11-19T12:31:34;100354.81;;;16.42;100.00
46955;BME280;32708;51.212;6.788;2023-11-19T12:34:10;100344.59;;;16.19;100.00
46955;BME280;32708;51.212;6.788;2023-11-19T12:36:39;100355.28;;;16.44;100.00
46955;BME280;32708;51.212;6.788;2023-11-19T12:39:10;100343.88;;;16.22;100.00
46955;BME280;32708;51.212;6.788;2023-11-19T12:41:51;100361.75;;;15.51;100.00
46955;BME280;32708;51.212;6.788;2023-11-19T12:44:19;100382.03;;;15.27;100.00
46955;BME280;32708;51.212;6.788;2023-11-19T12:46:45;100403.09;;;15.20;100.00
46955;BME280;32708;51.212;6.788;2023-11-19T12:49:14;100405.63;;;15.09;100.00
46955;BME280;32708;51.212;6.788;2023-11-19T12:51:41;100403.50;;;15.02;100.00
46955;BME280;32708;51.212;6.788;2023-11-19T12:54:07;100380.63;;;15.33;100.00
46955;BME280;32708;51.212;6.788;2023-11-19T12:56:33;100388.38;;;15.47;100.00
46955;BME280;32708;51.212;6.788;2023-11-19T12:59:11;100386.72;;;16.20;100.00
46955;BME280;32708;51.212;6.788;2023-11-19T13:01:38;100390.00;;;16.06;100.00
46955;BME280;32708;51.212;6.788;2023-11-19T13:04:29;100392.13;;;15.93;100.00
46955;BME280;32708;51.212;6.788;2023-11-19T13:07:00;100389.75;;;15.73;100.00
46955;BME280;32708;51.212;6.788;2023-11-19T13:09:28;100389.25;;;15.86;100.00